sensor_id;sensor_type;location;lat;lon;timestamp;P1;durP1;ratioP1;P2;durP2;ratioP2
73113;SDS011;61301;51.956;5.876;2024-01-15T00:01:03;3.75;;;1.15;;
73113;SDS011;61301;51.956;5.876;2024-01-15T00:03:29;3.92;;;0.82;;
73113;SDS011;61301;51.956;5.876;2024-01-15T00:05:55;8.98;;;1.67;;
73113;SDS011;61301;51.956;5.876;2024-01-15T00:08:21;7.40;;;0.93;;
73113;SDS011;61301;51.956;5.876;2024-01-15T00:10:47;2.03;;;0.60;;
73113;SDS011;61301;51.956;5.876;2024-01-15T00:13:13;4.20;;;1.20;;
73113;SDS011;61301;51.956;5.876;2024-01-15T00:15:39;6.50;;;1.55;;
73113;SDS011;61301;51.956;5.876;2024-01-15T00:18:05;5.72;;;0.98;;
73113;SDS011;61301;51.956;5.876;2024-01-15T00:20:31;5.57;;;1.05;;
73113;SDS011;61301;51.956;5.876;2024-01-15T00:22:57;3.97;;;0.88;;
73113;SDS011;61301;51.956;5.876;2024-01-15T00:25:23;6.13;;;1.10;;
73113;SDS011;61301;51.956;5.876;2024-01-15T00:27:49;8.85;;;1.40;;
73113;SDS011;61301;51.956;5.876;2024-01-15T00:30:15;6.80;;;0.90;;
73113;SDS011;61301;51.956;5.876;2024-01-15T00:32:41;6.57;;;0.90;;
73113;SDS011;61301;51.956;5.876;2024-01-15T00:35:07;6.32;;;1.20;;
73113;SDS011;61301;51.956;5.876;2024-01-15T00:37:34;8.10;;;1.00;;
73113;SDS011;61301;51.956;5.876;2024-01-15T00:40:00;4.43;;;0.93;;
73113;SDS011;61301;51.956;5.876;2024-01-15T00:42:26;3.60;;;0.70;;
73113;SDS011;61301;51.956;5.876;2024-01-15T00:44:52;5.53;;;0.73;;
73113;SDS011;61301;51.956;5.876;2024-01-15T00:47:19;5.10;;;0.77;;
73113;SDS011;61301;51.956;5.876;2024-01-15T00:49:45;5.47;;;1.05;;
73113;SDS011;61301;51.956;5.876;2024-01-15T00:52:11;6.65;;;1.10;;
73113;SDS011;61301;51.956;5.876;2024-01-15T00:54:37;3.28;;;0.82;;
73113;SDS011;61301;51.956;5.876;2024-01-15T00:57:04;7.68;;;1.05;;
73113;SDS011;61301;51.956;5.876;2024-01-15T00:59:30;4.32;;;0.90;;
73113;SDS011;61301;51.956;5.876;2024-01-15T01:01:56;4.47;;;0.93;;
73113;SDS011;61301;51.956;5.876;2024-01-15T01:04:22;7.82;;;1.33;;
73113;SDS011;61301;51.956;5.876;2024-01-15T01:06:48;9.00;;;2.65;;
73113;SDS011;61301;51.956;5.876;2024-01-15T01:09:14;4.95;;;1.15;;
73113;SDS011;61301;51.956;5.876;2024-01-15T01:11:41;10.73;;;2.90;;
73113;SDS011;61301;51.956;5.876;2024-01-15T01:14:07;7.57;;;1.45;;
73113;SDS011;61301;51.956;5.876;2024-01-15T01:16:33;6.15;;;1.17;;
73113;SDS011;61301;51.956;5.876;2024-01-15T01:19:05;4.65;;;1.20;;
73113;SDS011;61301;51.956;5.876;2024-01-15T01:21:32;5.93;;;1.20;;
73113;SDS011;61301;51.956;5.876;2024-01-15T01:23:59;4.47;;;0.93;;
73113;SDS011;61301;51.956;5.876;2024-01-15T01:26:25;6.35;;;1.20;;
73113;SDS011;61301;51.956;5.876;2024-01-15T01:28:51;6.53;;;1.13;;
73113;SDS011;61301;51.956;5.876;2024-01-15T01:31:17;11.63;;;1.73;;
73113;SDS011;61301;51.956;5.876;2024-01-15T01:33:43;5.10;;;0.80;;
73113;SDS011;61301;51.956;5.876;2024-01-15T01:36:09;10.98;;;1.33;;
73113;SDS011;61301;51.956;5.876;2024-01-15T01:38:36;7.22;;;1.30;;
73113;SDS011;61301;51.956;5.876;2024-01-15T01:41:02;4.95;;;1.05;;
73113;SDS011;61301;51.956;5.876;2024-01-15T01:43:28;9.65;;;1.10;;
73113;SDS011;61301;51.956;5.876;2024-01-15T01:45:55;6.68;;;1.63;;
73113;SDS011;61301;51.956;5.876;2024-01-15T01:48:24;7.43;;;1.30;;
73113;SDS011;61301;51.956;5.876;2024-01-15T01:50:54;11.60;;;1.77;;
73113;SDS011;61301;51.956;5.876;2024-01-15T01:53:23;6.57;;;1.25;;
73113;SDS011;61301;51.956;5.876;2024-01-15T01:55:49;13.02;;;1.70;;
73113;SDS011;61301;51.956;5.876;2024-01-15T01:58:16;8.23;;;1.58;;
73113;SDS011;61301;51.956;5.876;2024-01-15T02:00:43;8.38;;;1.60;;
73113;SDS011;61301;51.956;5.876;2024-01-15T02:03:09;6.13;;;1.15;;
73113;SDS011;61301;51.956;5.876;2024-01-15T02:05:35;3.83;;;1.00;;
73113;SDS011;61301;51.956;5.876;2024-01-15T02:08:02;10.50;;;0.90;;
73113;SDS011;61301;51.956;5.876;2024-01-15T02:10:29;7.00;;;1.27;;
73113;SDS011;61301;51.956;5.876;2024-01-15T02:12:54;5.05;;;1.23;;
73113;SDS011;61301;51.956;5.876;2024-01-15T02:15:20;4.95;;;1.10;;
73113;SDS011;61301;51.956;5.876;2024-01-15T02:17:56;7.85;;;1.10;;
73113;SDS011;61301;51.956;5.876;2024-01-15T02:20:25;12.38;;;1.35;;
73113;SDS011;61301;51.956;5.876;2024-01-15T02:22:52;5.90;;;1.15;;
73113;SDS011;61301;51.956;5.876;2024-01-15T02:25:18;8.82;;;2.03;;
73113;SDS011;61301;51.956;5.876;2024-01-15T02:27:44;6.72;;;1.48;;
73113;SDS011;61301;51.956;5.876;2024-01-15T02:30:12;6.00;;;1.15;;
73113;SDS011;61301;51.956;5.876;2024-01-15T02:32:38;12.27;;;1.65;;
73113;SDS011;61301;51.956;5.876;2024-01-15T02:35:04;5.07;;;2.10;;
73113;SDS011;61301;51.956;5.876;2024-01-15T02:37:30;8.00;;;1.20;;
73113;SDS011;61301;51.956;5.876;2024-01-15T02:39:56;8.25;;;2.15;;
73113;SDS011;61301;51.956;5.876;2024-01-15T02:42:22;9.55;;;1.45;;
73113;SDS011;61301;51.956;5.876;2024-01-15T02:44:48;11.00;;;1.92;;
73113;SDS011;61301;51.956;5.876;2024-01-15T02:47:14;6.57;;;1.67;;
73113;SDS011;61301;51.956;5.876;2024-01-15T02:49:40;6.93;;;1.40;;
73113;SDS011;61301;51.956;5.876;2024-01-15T02:52:06;13.48;;;1.75;;
73113;SDS011;61301;51.956;5.876;2024-01-15T02:54:32;6.38;;;1.25;;
73113;SDS011;61301;51.956;5.876;2024-01-15T02:56:59;8.27;;;2.58;;
73113;SDS011;61301;51.956;5.876;2024-01-15T02:59:25;11.85;;;1.42;;
73113;SDS011;61301;51.956;5.876;2024-01-15T03:01:51;7.18;;;1.17;;
73113;SDS011;61301;51.956;5.876;2024-01-15T03:04:17;9.50;;;1.50;;
73113;SDS011;61301;51.956;5.876;2024-01-15T03:06:42;6.47;;;2.35;;
73113;SDS011;61301;51.956;5.876;2024-01-15T03:09:09;9.48;;;1.38;;
73113;SDS011;61301;51.956;5.876;2024-01-15T03:11:38;13.00;;;1.88;;
73113;SDS011;61301;51.956;5.876;2024-01-15T03:14:05;4.00;;;1.08;;
73113;SDS011;61301;51.956;5.876;2024-01-15T03:16:31;9.40;;;1.98;;
73113;SDS011;61301;51.956;5.876;2024-01-15T03:18:57;8.57;;;2.10;;
73113;SDS011;61301;51.956;5.876;2024-01-15T03:21:22;10.45;;;1.55;;
73113;SDS011;61301;51.956;5.876;2024-01-15T03:23:49;8.15;;;1.92;;
73113;SDS011;61301;51.956;5.876;2024-01-15T03:26:14;5.32;;;1.10;;
73113;SDS011;61301;51.956;5.876;2024-01-15T03:28:41;8.48;;;1.40;;
73113;SDS011;61301;51.956;5.876;2024-01-15T03:31:07;7.97;;;1.45;;
73113;SDS011;61301;51.956;5.876;2024-01-15T03:33:33;12.18;;;1.63;;
73113;SDS011;61301;51.956;5.876;2024-01-15T03:35:59;7.70;;;2.05;;
73113;SDS011;61301;51.956;5.876;2024-01-15T03:38:27;4.45;;;0.85;;
73113;SDS011;61301;51.956;5.876;2024-01-15T03:40:54;6.95;;;1.33;;
73113;SDS011;61301;51.956;5.876;2024-01-15T03:43:20;8.38;;;0.90;;
73113;SDS011;61301;51.956;5.876;2024-01-15T03:45:46;6.70;;;1.67;;
73113;SDS011;61301;51.956;5.876;2024-01-15T03:48:12;4.60;;;0.95;;
73113;SDS011;61301;51.956;5.876;2024-01-15T03:50:38;10.40;;;1.63;;
73113;SDS011;61301;51.956;5.876;2024-01-15T03:53:04;5.43;;;1.52;;
73113;SDS011;61301;51.956;5.876;2024-01-15T03:55:30;5.22;;;1.88;;
73113;SDS011;61301;51.956;5.876;2024-01-15T03:57:56;4.50;;;1.20;;
73113;SDS011;61301;51.956;5.876;2024-01-15T04:00:22;2.08;;;0.65;;
73113;SDS011;61301;51.956;5.876;2024-01-15T04:02:48;2.13;;;0.68;;
73113;SDS011;61301;51.956;5.876;2024-01-15T04:05:14;4.22;;;0.80;;
73113;SDS011;61301;51.956;5.876;2024-01-15T04:07:40;5.93;;;1.27;;
73113;SDS011;61301;51.956;5.876;2024-01-15T04:10:06;5.18;;;1.05;;
73113;SDS011;61301;51.956;5.876;2024-01-15T04:12:32;2.00;;;0.50;;
73113;SDS011;61301;51.956;5.876;2024-01-15T04:14:58;4.18;;;1.20;;
73113;SDS011;61301;51.956;5.876;2024-01-15T04:17:24;7.97;;;1.65;;
73113;SDS011;61301;51.956;5.876;2024-01-15T04:19:50;3.63;;;1.25;;
73113;SDS011;61301;51.956;5.876;2024-01-15T04:22:16;7.07;;;1.08;;
73113;SDS011;61301;51.956;5.876;2024-01-15T04:24:42;3.58;;;0.68;;
73113;SDS011;61301;51.956;5.876;2024-01-15T04:27:08;5.70;;;1.20;;
73113;SDS011;61301;51.956;5.876;2024-01-15T04:29:34;6.72;;;0.85;;
73113;SDS011;61301;51.956;5.876;2024-01-15T04:32:02;6.40;;;1.20;;
73113;SDS011;61301;51.956;5.876;2024-01-15T04:34:29;6.93;;;1.55;;
73113;SDS011;61301;51.956;5.876;2024-01-15T04:36:55;7.38;;;1.40;;
73113;SDS011;61301;51.956;5.876;2024-01-15T04:39:21;12.30;;;1.67;;
73113;SDS011;61301;51.956;5.876;2024-01-15T04:41:48;5.13;;;1.10;;
73113;SDS011;61301;51.956;5.876;2024-01-15T04:44:14;10.32;;;2.55;;
73113;SDS011;61301;51.956;5.876;2024-01-15T04:46:40;11.52;;;1.13;;
73113;SDS011;61301;51.956;5.876;2024-01-15T04:49:06;5.65;;;1.65;;
73113;SDS011;61301;51.956;5.876;2024-01-15T04:51:32;7.78;;;1.08;;
73113;SDS011;61301;51.956;5.876;2024-01-15T04:54:00;6.72;;;1.20;;
73113;SDS011;61301;51.956;5.876;2024-01-15T04:56:26;8.82;;;1.15;;
73113;SDS011;61301;51.956;5.876;2024-01-15T04:58:52;9.60;;;1.00;;
73113;SDS011;61301;51.956;5.876;2024-01-15T05:01:18;3.75;;;0.88;;
73113;SDS011;61301;51.956;5.876;2024-01-15T05:03:44;12.90;;;2.22;;
73113;SDS011;61301;51.956;5.876;2024-01-15T05:06:10;9.07;;;1.33;;
73113;SDS011;61301;51.956;5.876;2024-01-15T05:08:36;12.15;;;2.53;;
73113;SDS011;61301;51.956;5.876;2024-01-15T05:11:02;14.50;;;2.03;;
73113;SDS011;61301;51.956;5.876;2024-01-15T05:13:28;7.70;;;1.33;;
73113;SDS011;61301;51.956;5.876;2024-01-15T05:15:54;8.05;;;1.00;;
73113;SDS011;61301;51.956;5.876;2024-01-15T05:18:20;8.10;;;1.75;;
73113;SDS011;61301;51.956;5.876;2024-01-15T05:20:46;8.43;;;1.63;;
73113;SDS011;61301;51.956;5.876;2024-01-15T05:23:12;7.28;;;1.70;;
73113;SDS011;61301;51.956;5.876;2024-01-15T05:25:38;9.40;;;1.52;;
73113;SDS011;61301;51.956;5.876;2024-01-15T05:28:05;8.00;;;1.45;;
73113;SDS011;61301;51.956;5.876;2024-01-15T05:30:31;8.52;;;1.50;;
73113;SDS011;61301;51.956;5.876;2024-01-15T05:32:57;9.25;;;1.45;;
73113;SDS011;61301;51.956;5.876;2024-01-15T05:35:23;9.52;;;1.83;;
73113;SDS011;61301;51.956;5.876;2024-01-15T05:37:49;7.47;;;1.27;;
73113;SDS011;61301;51.956;5.876;2024-01-15T05:40:15;8.25;;;1.40;;
73113;SDS011;61301;51.956;5.876;2024-01-15T05:42:41;9.15;;;2.05;;
73113;SDS011;61301;51.956;5.876;2024-01-15T05:45:07;5.55;;;1.40;;
73113;SDS011;61301;51.956;5.876;2024-01-15T05:47:33;8.60;;;2.47;;
73113;SDS011;61301;51.956;5.876;2024-01-15T05:50:00;5.47;;;1.30;;
73113;SDS011;61301;51.956;5.876;2024-01-15T05:52:27;6.03;;;1.38;;
73113;SDS011;61301;51.956;5.876;2024-01-15T05:54:53;7.05;;;1.13;;
73113;SDS011;61301;51.956;5.876;2024-01-15T05:57:19;3.35;;;1.20;;
73113;SDS011;61301;51.956;5.876;2024-01-15T05:59:45;2.70;;;1.02;;
73113;SDS011;61301;51.956;5.876;2024-01-15T06:02:11;4.68;;;1.48;;
73113;SDS011;61301;51.956;5.876;2024-01-15T06:04:37;8.70;;;1.60;;
73113;SDS011;61301;51.956;5.876;2024-01-15T06:07:03;5.57;;;1.42;;
73113;SDS011;61301;51.956;5.876;2024-01-15T06:09:29;8.60;;;1.38;;
73113;SDS011;61301;51.956;5.876;2024-01-15T06:11:57;3.20;;;0.88;;
73113;SDS011;61301;51.956;5.876;2024-01-15T06:14:23;6.95;;;1.10;;
73113;SDS011;61301;51.956;5.876;2024-01-15T06:16:49;3.28;;;1.00;;
73113;SDS011;61301;51.956;5.876;2024-01-15T06:19:15;2.60;;;0.80;;
73113;SDS011;61301;51.956;5.876;2024-01-15T06:21:41;3.67;;;1.02;;
73113;SDS011;61301;51.956;5.876;2024-01-15T06:24:07;2.45;;;0.85;;
73113;SDS011;61301;51.956;5.876;2024-01-15T06:26:35;4.78;;;1.02;;
73113;SDS011;61301;51.956;5.876;2024-01-15T06:29:01;2.60;;;0.60;;
73113;SDS011;61301;51.956;5.876;2024-01-15T06:31:28;2.95;;;0.80;;
73113;SDS011;61301;51.956;5.876;2024-01-15T06:33:55;2.10;;;0.80;;
73113;SDS011;61301;51.956;5.876;2024-01-15T06:36:21;3.33;;;1.05;;
73113;SDS011;61301;51.956;5.876;2024-01-15T06:38:47;4.10;;;0.98;;
73113;SDS011;61301;51.956;5.876;2024-01-15T06:41:13;2.08;;;1.30;;
73113;SDS011;61301;51.956;5.876;2024-01-15T06:43:39;3.50;;;1.45;;
73113;SDS011;61301;51.956;5.876;2024-01-15T06:46:05;3.70;;;2.40;;
73113;SDS011;61301;51.956;5.876;2024-01-15T06:48:31;4.15;;;1.88;;
73113;SDS011;61301;51.956;5.876;2024-01-15T06:50:57;4.32;;;2.30;;
73113;SDS011;61301;51.956;5.876;2024-01-15T06:53:23;3.33;;;1.88;;
73113;SDS011;61301;51.956;5.876;2024-01-15T06:55:49;3.65;;;1.55;;
73113;SDS011;61301;51.956;5.876;2024-01-15T06:58:16;3.85;;;2.05;;
73113;SDS011;61301;51.956;5.876;2024-01-15T07:00:42;4.70;;;2.97;;
73113;SDS011;61301;51.956;5.876;2024-01-15T07:03:08;4.85;;;2.92;;
73113;SDS011;61301;51.956;5.876;2024-01-15T07:05:34;6.05;;;3.60;;
73113;SDS011;61301;51.956;5.876;2024-01-15T07:08:02;4.20;;;3.80;;
73113;SDS011;61301;51.956;5.876;2024-01-15T07:10:29;5.55;;;3.92;;
73113;SDS011;61301;51.956;5.876;2024-01-15T07:12:55;5.60;;;3.88;;
73113;SDS011;61301;51.956;5.876;2024-01-15T07:15:21;5.10;;;4.18;;
73113;SDS011;61301;51.956;5.876;2024-01-15T07:17:47;4.82;;;4.20;;
73113;SDS011;61301;51.956;5.876;2024-01-15T07:20:13;7.80;;;4.20;;
73113;SDS011;61301;51.956;5.876;2024-01-15T07:22:39;5.60;;;4.65;;
73113;SDS011;61301;51.956;5.876;2024-01-15T07:25:05;6.88;;;4.57;;
73113;SDS011;61301;51.956;5.876;2024-01-15T07:27:32;5.95;;;4.40;;
73113;SDS011;61301;51.956;5.876;2024-01-15T07:29:58;5.57;;;5.07;;
73113;SDS011;61301;51.956;5.876;2024-01-15T07:32:24;5.20;;;4.70;;
73113;SDS011;61301;51.956;5.876;2024-01-15T07:34:50;5.45;;;4.05;;
73113;SDS011;61301;51.956;5.876;2024-01-15T07:37:16;5.22;;;4.65;;
73113;SDS011;61301;51.956;5.876;2024-01-15T07:39:42;4.63;;;3.53;;
73113;SDS011;61301;51.956;5.876;2024-01-15T07:42:08;6.55;;;4.72;;
73113;SDS011;61301;51.956;5.876;2024-01-15T07:44:34;5.18;;;4.60;;
73113;SDS011;61301;51.956;5.876;2024-01-15T07:47:00;4.47;;;4.05;;
73113;SDS011;61301;51.956;5.876;2024-01-15T07:49:26;5.15;;;4.65;;
73113;SDS011;61301;51.956;5.876;2024-01-15T07:51:52;5.05;;;4.32;;
73113;SDS011;61301;51.956;5.876;2024-01-15T07:54:18;4.30;;;3.90;;
73113;SDS011;61301;51.956;5.876;2024-01-15T07:56:54;4.57;;;3.65;;
73113;SDS011;61301;51.956;5.876;2024-01-15T07:59:24;5.15;;;4.28;;
73113;SDS011;61301;51.956;5.876;2024-01-15T08:01:51;5.35;;;4.13;;
73113;SDS011;61301;51.956;5.876;2024-01-15T08:04:17;6.10;;;3.80;;
73113;SDS011;61301;51.956;5.876;2024-01-15T08:06:44;3.45;;;2.92;;
73113;SDS011;61301;51.956;5.876;2024-01-15T08:09:11;2.80;;;2.20;;
73113;SDS011;61301;51.956;5.876;2024-01-15T08:11:41;2.50;;;2.28;;
73113;SDS011;61301;51.956;5.876;2024-01-15T08:14:08;3.20;;;2.70;;
73113;SDS011;61301;51.956;5.876;2024-01-15T08:16:36;4.78;;;2.60;;
73113;SDS011;61301;51.956;5.876;2024-01-15T08:19:02;3.22;;;2.42;;
73113;SDS011;61301;51.956;5.876;2024-01-15T08:21:28;2.50;;;2.15;;
73113;SDS011;61301;51.956;5.876;2024-01-15T08:23:56;2.75;;;2.08;;
73113;SDS011;61301;51.956;5.876;2024-01-15T08:26:23;1.55;;;1.40;;
73113;SDS011;61301;51.956;5.876;2024-01-15T08:28:49;1.92;;;1.75;;
73113;SDS011;61301;51.956;5.876;2024-01-15T08:31:16;2.50;;;1.95;;
73113;SDS011;61301;51.956;5.876;2024-01-15T08:33:42;2.40;;;1.30;;
73113;SDS011;61301;51.956;5.876;2024-01-15T08:36:09;1.67;;;1.30;;
73113;SDS011;61301;51.956;5.876;2024-01-15T08:38:35;4.03;;;1.55;;
73113;SDS011;61301;51.956;5.876;2024-01-15T08:41:01;2.08;;;1.80;;
73113;SDS011;61301;51.956;5.876;2024-01-15T08:43:27;3.90;;;1.70;;
73113;SDS011;61301;51.956;5.876;2024-01-15T08:45:54;3.55;;;1.40;;
73113;SDS011;61301;51.956;5.876;2024-01-15T08:48:20;5.18;;;2.00;;
73113;SDS011;61301;51.956;5.876;2024-01-15T08:50:46;4.90;;;1.80;;
73113;SDS011;61301;51.956;5.876;2024-01-15T08:53:12;3.60;;;1.98;;
73113;SDS011;61301;51.956;5.876;2024-01-15T08:55:38;5.13;;;1.67;;
73113;SDS011;61301;51.956;5.876;2024-01-15T08:58:04;5.05;;;2.03;;
73113;SDS011;61301;51.956;5.876;2024-01-15T09:00:31;3.22;;;1.80;;
73113;SDS011;61301;51.956;5.876;2024-01-15T09:02:57;5.15;;;2.38;;
73113;SDS011;61301;51.956;5.876;2024-01-15T09:05:23;5.30;;;2.28;;
73113;SDS011;61301;51.956;5.876;2024-01-15T09:07:49;5.75;;;2.10;;
73113;SDS011;61301;51.956;5.876;2024-01-15T09:10:18;3.92;;;2.40;;
73113;SDS011;61301;51.956;5.876;2024-01-15T09:12:44;3.05;;;1.80;;
73113;SDS011;61301;51.956;5.876;2024-01-15T09:15:10;6.05;;;2.00;;
73113;SDS011;61301;51.956;5.876;2024-01-15T09:17:36;3.25;;;1.70;;
73113;SDS011;61301;51.956;5.876;2024-01-15T09:20:02;4.10;;;2.25;;
73113;SDS011;61301;51.956;5.876;2024-01-15T09:22:31;5.65;;;2.22;;
73113;SDS011;61301;51.956;5.876;2024-01-15T09:24:57;2.72;;;1.35;;
73113;SDS011;61301;51.956;5.876;2024-01-15T09:27:24;2.95;;;1.65;;
73113;SDS011;61301;51.956;5.876;2024-01-15T09:29:53;4.85;;;2.05;;
73113;SDS011;61301;51.956;5.876;2024-01-15T09:32:19;6.30;;;2.22;;
73113;SDS011;61301;51.956;5.876;2024-01-15T09:34:45;3.92;;;1.85;;
73113;SDS011;61301;51.956;5.876;2024-01-15T09:37:12;5.82;;;1.50;;
73113;SDS011;61301;51.956;5.876;2024-01-15T09:39:40;6.38;;;2.30;;
73113;SDS011;61301;51.956;5.876;2024-01-15T09:42:07;4.93;;;1.83;;
73113;SDS011;61301;51.956;5.876;2024-01-15T09:44:33;3.50;;;1.60;;
73113;SDS011;61301;51.956;5.876;2024-01-15T09:47:00;6.07;;;2.25;;
73113;SDS011;61301;51.956;5.876;2024-01-15T09:49:26;8.38;;;2.08;;
73113;SDS011;61301;51.956;5.876;2024-01-15T09:51:53;6.07;;;1.40;;
73113;SDS011;61301;51.956;5.876;2024-01-15T09:54:20;3.70;;;0.95;;
73113;SDS011;61301;51.956;5.876;2024-01-15T09:56:47;3.83;;;0.80;;
73113;SDS011;61301;51.956;5.876;2024-01-15T09:59:14;3.67;;;0.82;;
73113;SDS011;61301;51.956;5.876;2024-01-15T10:01:42;2.33;;;0.93;;
73113;SDS011;61301;51.956;5.876;2024-01-15T10:04:13;1.30;;;1.05;;
73113;SDS011;61301;51.956;5.876;2024-01-15T10:06:39;3.65;;;0.85;;
73113;SDS011;61301;51.956;5.876;2024-01-15T10:09:12;2.30;;;0.60;;
73113;SDS011;61301;51.956;5.876;2024-01-15T10:11:43;1.70;;;0.60;;
73113;SDS011;61301;51.956;5.876;2024-01-15T10:14:10;1.38;;;0.82;;
73113;SDS011;61301;51.956;5.876;2024-01-15T10:16:40;3.38;;;0.70;;
73113;SDS011;61301;51.956;5.876;2024-01-15T10:19:07;3.50;;;1.02;;
73113;SDS011;61301;51.956;5.876;2024-01-15T10:21:33;3.17;;;1.05;;
73113;SDS011;61301;51.956;5.876;2024-01-15T10:24:02;2.78;;;0.80;;
73113;SDS011;61301;51.956;5.876;2024-01-15T10:26:30;1.58;;;0.73;;
73113;SDS011;61301;51.956;5.876;2024-01-15T10:28:58;6.22;;;0.90;;
73113;SDS011;61301;51.956;5.876;2024-01-15T10:31:25;5.22;;;1.00;;
73113;SDS011;61301;51.956;5.876;2024-01-15T10:33:51;4.90;;;0.88;;
73113;SDS011;61301;51.956;5.876;2024-01-15T10:36:17;4.03;;;1.73;;
73113;SDS011;61301;51.956;5.876;2024-01-15T10:38:44;7.07;;;1.83;;
73113;SDS011;61301;51.956;5.876;2024-01-15T10:41:10;3.97;;;0.95;;
73113;SDS011;61301;51.956;5.876;2024-01-15T10:43:36;7.30;;;2.08;;
73113;SDS011;61301;51.956;5.876;2024-01-15T10:46:03;3.55;;;2.33;;
73113;SDS011;61301;51.956;5.876;2024-01-15T10:48:30;6.32;;;3.35;;
73113;SDS011;61301;51.956;5.876;2024-01-15T10:50:57;4.28;;;2.47;;
73113;SDS011;61301;51.956;5.876;2024-01-15T10:53:24;5.30;;;2.25;;
73113;SDS011;61301;51.956;5.876;2024-01-15T10:55:54;4.93;;;3.00;;
73113;SDS011;61301;51.956;5.876;2024-01-15T10:58:21;4.90;;;3.33;;
73113;SDS011;61301;51.956;5.876;2024-01-15T11:00:48;4.03;;;2.80;;
73113;SDS011;61301;51.956;5.876;2024-01-15T11:03:15;4.43;;;2.95;;
73113;SDS011;61301;51.956;5.876;2024-01-15T11:05:42;6.32;;;2.80;;
73113;SDS011;61301;51.956;5.876;2024-01-15T11:08:09;6.70;;;2.38;;
73113;SDS011;61301;51.956;5.876;2024-01-15T11:10:46;6.28;;;2.97;;
73113;SDS011;61301;51.956;5.876;2024-01-15T11:13:21;7.45;;;2.42;;
73113;SDS011;61301;51.956;5.876;2024-01-15T11:15:55;7.82;;;2.50;;
73113;SDS011;61301;51.956;5.876;2024-01-15T11:18:22;6.50;;;2.83;;
73113;SDS011;61301;51.956;5.876;2024-01-15T11:21:31;4.13;;;2.00;;
73113;SDS011;61301;51.956;5.876;2024-01-15T11:23:42;4.15;;;2.05;;
73113;SDS011;61301;51.956;5.876;2024-01-15T11:34:21;5.82;;;1.45;;
73113;SDS011;61301;51.956;5.876;2024-01-15T11:37:07;9.68;;;1.95;;
73113;SDS011;61301;51.956;5.876;2024-01-15T11:41:59;8.10;;;2.85;;
73113;SDS011;61301;51.956;5.876;2024-01-15T11:44:26;5.43;;;1.30;;
73113;SDS011;61301;51.956;5.876;2024-01-15T11:52:34;9.57;;;1.30;;
73113;SDS011;61301;51.956;5.876;2024-01-15T11:55:11;4.93;;;1.20;;
73113;SDS011;61301;51.956;5.876;2024-01-15T11:57:54;8.98;;;1.40;;
73113;SDS011;61301;51.956;5.876;2024-01-15T12:00:21;4.95;;;1.40;;
73113;SDS011;61301;51.956;5.876;2024-01-15T12:02:48;6.70;;;1.23;;
73113;SDS011;61301;51.956;5.876;2024-01-15T12:05:15;5.20;;;1.02;;
73113;SDS011;61301;51.956;5.876;2024-01-15T12:07:43;11.55;;;1.52;;
73113;SDS011;61301;51.956;5.876;2024-01-15T12:10:11;7.07;;;1.50;;
73113;SDS011;61301;51.956;5.876;2024-01-15T12:12:53;5.38;;;1.05;;
73113;SDS011;61301;51.956;5.876;2024-01-15T12:15:29;6.45;;;1.50;;
73113;SDS011;61301;51.956;5.876;2024-01-15T12:17:55;8.10;;;1.30;;
73113;SDS011;61301;51.956;5.876;2024-01-15T12:20:26;11.35;;;1.80;;
73113;SDS011;61301;51.956;5.876;2024-01-15T12:23:01;9.25;;;1.55;;
73113;SDS011;61301;51.956;5.876;2024-01-15T12:25:31;6.00;;;1.77;;
73113;SDS011;61301;51.956;5.876;2024-01-15T12:27:59;7.07;;;1.23;;
73113;SDS011;61301;51.956;5.876;2024-01-15T12:30:27;5.72;;;1.90;;
73113;SDS011;61301;51.956;5.876;2024-01-15T12:32:53;4.90;;;0.80;;
73113;SDS011;61301;51.956;5.876;2024-01-15T12:35:20;7.60;;;1.38;;
73113;SDS011;61301;51.956;5.876;2024-01-15T12:37:47;8.80;;;1.63;;
73113;SDS011;61301;51.956;5.876;2024-01-15T12:40:13;4.97;;;1.13;;
73113;SDS011;61301;51.956;5.876;2024-01-15T12:42:44;4.60;;;1.52;;
73113;SDS011;61301;51.956;5.876;2024-01-15T12:45:11;6.00;;;1.10;;
73113;SDS011;61301;51.956;5.876;2024-01-15T12:47:38;6.05;;;1.10;;
73113;SDS011;61301;51.956;5.876;2024-01-15T12:50:09;8.98;;;1.73;;
73113;SDS011;61301;51.956;5.876;2024-01-15T12:52:36;3.70;;;1.05;;
73113;SDS011;61301;51.956;5.876;2024-01-15T12:55:05;3.38;;;0.90;;
73113;SDS011;61301;51.956;5.876;2024-01-15T12:57:34;3.80;;;1.20;;
73113;SDS011;61301;51.956;5.876;2024-01-15T13:00:00;2.75;;;0.70;;
73113;SDS011;61301;51.956;5.876;2024-01-15T13:02:27;3.08;;;0.80;;
73113;SDS011;61301;51.956;5.876;2024-01-15T13:04:53;7.82;;;2.45;;
73113;SDS011;61301;51.956;5.876;2024-01-15T13:07:19;3.60;;;0.80;;
73113;SDS011;61301;51.956;5.876;2024-01-15T13:09:45;7.05;;;1.42;;
73113;SDS011;61301;51.956;5.876;2024-01-15T13:12:11;5.70;;;0.93;;
73113;SDS011;61301;51.956;5.876;2024-01-15T13:14:37;4.57;;;1.25;;
73113;SDS011;61301;51.956;5.876;2024-01-15T13:17:03;4.93;;;1.33;;
73113;SDS011;61301;51.956;5.876;2024-01-15T13:19:29;5.30;;;1.27;;
73113;SDS011;61301;51.956;5.876;2024-01-15T13:21:55;4.90;;;1.45;;
73113;SDS011;61301;51.956;5.876;2024-01-15T13:24:25;3.72;;;0.88;;
73113;SDS011;61301;51.956;5.876;2024-01-15T13:26:51;3.40;;;0.65;;
73113;SDS011;61301;51.956;5.876;2024-01-15T13:29:17;5.95;;;1.45;;
73113;SDS011;61301;51.956;5.876;2024-01-15T13:31:43;4.68;;;1.25;;
73113;SDS011;61301;51.956;5.876;2024-01-15T13:34:12;3.92;;;0.90;;
73113;SDS011;61301;51.956;5.876;2024-01-15T13:36:38;4.32;;;0.90;;
73113;SDS011;61301;51.956;5.876;2024-01-15T13:39:04;3.78;;;1.25;;
73113;SDS011;61301;51.956;5.876;2024-01-15T13:41:34;6.18;;;1.00;;
73113;SDS011;61301;51.956;5.876;2024-01-15T13:44:01;5.03;;;1.75;;
73113;SDS011;61301;51.956;5.876;2024-01-15T13:46:28;6.30;;;2.10;;
73113;SDS011;61301;51.956;5.876;2024-01-15T13:48:55;9.98;;;1.52;;
73113;SDS011;61301;51.956;5.876;2024-01-15T13:51:21;5.95;;;1.70;;
73113;SDS011;61301;51.956;5.876;2024-01-15T13:53:49;5.90;;;1.73;;
73113;SDS011;61301;51.956;5.876;2024-01-15T13:56:16;4.95;;;0.95;;
73113;SDS011;61301;51.956;5.876;2024-01-15T13:58:42;2.35;;;0.75;;
73113;SDS011;61301;51.956;5.876;2024-01-15T14:01:08;4.70;;;1.05;;
73113;SDS011;61301;51.956;5.876;2024-01-15T14:03:35;2.80;;;0.80;;
73113;SDS011;61301;51.956;5.876;2024-01-15T14:06:01;7.75;;;1.63;;
73113;SDS011;61301;51.956;5.876;2024-01-15T14:08:34;4.15;;;1.40;;
73113;SDS011;61301;51.956;5.876;2024-01-15T14:11:05;6.32;;;1.38;;
73113;SDS011;61301;51.956;5.876;2024-01-15T14:13:32;8.45;;;1.27;;
73113;SDS011;61301;51.956;5.876;2024-01-15T14:15:59;4.15;;;1.00;;
73113;SDS011;61301;51.956;5.876;2024-01-15T14:18:26;3.28;;;1.05;;
73113;SDS011;61301;51.956;5.876;2024-01-15T14:20:52;7.35;;;2.22;;
73113;SDS011;61301;51.956;5.876;2024-01-15T14:23:19;2.63;;;0.90;;
73113;SDS011;61301;51.956;5.876;2024-01-15T14:25:46;4.80;;;1.17;;
73113;SDS011;61301;51.956;5.876;2024-01-15T14:28:12;7.25;;;1.70;;
73113;SDS011;61301;51.956;5.876;2024-01-15T14:30:38;5.72;;;1.20;;
73113;SDS011;61301;51.956;5.876;2024-01-15T14:33:04;5.30;;;1.00;;
73113;SDS011;61301;51.956;5.876;2024-01-15T14:35:30;7.05;;;1.17;;
73113;SDS011;61301;51.956;5.876;2024-01-15T14:37:56;4.28;;;1.38;;
73113;SDS011;61301;51.956;5.876;2024-01-15T14:40:24;5.40;;;1.42;;
73113;SDS011;61301;51.956;5.876;2024-01-15T14:42:51;3.88;;;0.93;;
73113;SDS011;61301;51.956;5.876;2024-01-15T14:45:17;2.50;;;0.93;;
73113;SDS011;61301;51.956;5.876;2024-01-15T14:47:43;5.13;;;1.20;;
73113;SDS011;61301;51.956;5.876;2024-01-15T14:50:10;4.82;;;1.35;;
73113;SDS011;61301;51.956;5.876;2024-01-15T14:52:36;7.35;;;1.23;;
73113;SDS011;61301;51.956;5.876;2024-01-15T14:55:02;4.82;;;1.35;;
73113;SDS011;61301;51.956;5.876;2024-01-15T14:57:29;2.33;;;0.80;;
73113;SDS011;61301;51.956;5.876;2024-01-15T14:59:55;3.53;;;1.17;;
73113;SDS011;61301;51.956;5.876;2024-01-15T15:02:23;5.70;;;1.63;;